Time;durP1;ratioP1;P1;durP2;ratioP2;P2;SDS_P1;SDS_P2;PMS_P1;PMS_P2;Temp;Humidity;BMP_temperature;BMP_pressure;BME280_temperature;BME280_humidity;BME280_pressure;Samples;Min_cycle;Max_cycle;Signal;HPM_P1;HPM_P2
2023/09/05 00:02:13;;;;;;;5.13;4.35;;;;;;;;;;4993403;28;20491;-85
2023/09/05 00:04:44;;;;;;;5.15;4.57;;;;;;;;;;4976283;28;20046;-85
2023/09/05 00:07:12;;;;;;;5.05;4.60;;;;;;;;;;4976338;28;20129;-85
2023/09/05 00:09:40;;;;;;;5.00;4.60;;;;;;;;;;4976607;28;20081;-86
2023/09/05 00:12:07;;;;;;;7.03;5.35;;;;;;;;;;4993496;28;20047;-85
2023/09/05 00:14:36;;;;;;;6.68;5.32;;;;;;;;;;4976311;28;20128;-85
2023/09/05 00:17:03;;;;;;;8.50;5.88;;;;;;;;;;4975950;28;20502;-85
2023/09/05 00:19:30;;;;;;;6.43;5.82;;;;;;;;;;4993509;28;20056;-85
2023/09/05 00:21:58;;;;;;;6.88;5.45;;;;;;;;;;4976101;28;20074;-85
2023/09/05 00:24:28;;;;;;;7.35;4.97;;;;;;;;;;4993791;28;20499;-85
2023/09/05 00:26:55;;;;;;;6.70;5.97;;;;;;;;;;4977636;28;20062;-84
2023/09/05 00:29:23;;;;;;;6.95;5.30;;;;;;;;;;5003787;28;20054;-85
2023/09/05 00:31:51;;;;;;;6.70;5.72;;;;;;;;;;4981277;28;20418;-86
2023/09/05 00:34:18;;;;;;;8.95;5.60;;;;;;;;;;4979881;28;20046;-85
2023/09/05 00:36:48;;;;;;;5.93;5.32;;;;;;;;;;4979951;28;20057;-86
2023/09/05 00:39:16;;;;;;;5.85;5.13;;;;;;;;;;4979953;28;20047;-85
2023/09/05 00:41:43;;;;;;;7.93;5.25;;;;;;;;;;4980063;28;20054;-85
2023/09/05 00:44:13;;;;;;;5.50;5.00;;;;;;;;;;4979976;28;20059;-86
2023/09/05 00:46:42;;;;;;;5.85;5.22;;;;;;;;;;4999606;28;20062;-85
2023/09/05 00:49:10;;;;;;;6.03;5.15;;;;;;;;;;4995285;28;20092;-85
2023/09/05 00:51:38;;;;;;;5.47;5.07;;;;;;;;;;4979598;28;20058;-85
2023/09/05 00:54:06;;;;;;;6.03;4.82;;;;;;;;;;4996547;28;20413;-85
2023/09/05 00:56:35;;;;;;;9.38;5.53;;;;;;;;;;4979541;28;20050;-85
2023/09/05 00:59:03;;;;;;;5.22;4.82;;;;;;;;;;4979364;28;20055;-85
2023/09/05 01:01:30;;;;;;;5.93;5.18;;;;;;;;;;4996899;28;20081;-85
2023/09/05 01:04:00;;;;;;;5.43;4.93;;;;;;;;;;4979420;28;20053;-85
2023/09/05 01:06:31;;;;;;;9.60;5.70;;;;;;;;;;4978952;28;20092;-86
2023/09/05 01:09:17;;;;;;;12.05;5.68;;;;;;;;;;4996260;28;20139;-85
2023/09/05 01:11:45;;;;;;;5.72;5.22;;;;;;;;;;4979330;28;20054;-85
2023/09/05 01:14:13;;;;;;;6.22;5.63;;;;;;;;;;4979279;28;20046;-85
2023/09/05 01:16:45;;;;;;;7.40;5.40;;;;;;;;;;4978984;28;20475;-85
2023/09/05 01:19:15;;;;;;;7.38;5.25;;;;;;;;;;4996299;28;20056;-85
2023/09/05 01:21:51;;;;;;;9.00;5.13;;;;;;;;;;4979326;28;20498;-85
2023/09/05 01:24:20;;;;;;;5.82;5.18;;;;;;;;;;4996335;28;20073;-85
2023/09/05 01:26:49;;;;;;;5.45;5.03;;;;;;;;;;4996212;28;20046;-86
2023/09/05 01:29:29;;;;;;;5.93;4.85;;;;;;;;;;4979134;28;20487;-85
2023/09/05 01:31:59;;;;;;;5.55;5.15;;;;;;;;;;4995983;28;20058;-86
2023/09/05 01:34:26;;;;;;;4.90;4.53;;;;;;;;;;4978937;28;20054;-85
2023/09/05 01:36:53;;;;;;;7.97;5.35;;;;;;;;;;4978637;28;20050;-86
2023/09/05 01:39:20;;;;;;;4.55;4.22;;;;;;;;;;4979035;28;20054;-86
2023/09/05 01:41:48;;;;;;;7.13;5.07;;;;;;;;;;4978331;28;20380;-85
2023/09/05 01:44:16;;;;;;;6.22;5.05;;;;;;;;;;4978019;28;20054;-85
2023/09/05 01:46:43;;;;;;;5.88;5.05;;;;;;;;;;4978402;28;20484;-85
2023/09/05 01:49:11;;;;;;;5.07;4.43;;;;;;;;;;4978417;28;20057;-85
2023/09/05 01:51:38;;;;;;;5.60;4.93;;;;;;;;;;4995578;28;20511;-85
2023/09/05 01:54:05;;;;;;;11.73;5.53;;;;;;;;;;4978128;28;20054;-86
2023/09/05 01:56:32;;;;;;;8.10;5.25;;;;;;;;;;4978212;28;20081;-85
2023/09/05 01:59:00;;;;;;;8.20;5.80;;;;;;;;;;4978309;28;20517;-85
2023/09/05 02:01:27;;;;;;;5.82;5.30;;;;;;;;;;4995439;28;20093;-85
2023/09/05 02:03:55;;;;;;;5.60;5.10;;;;;;;;;;4995243;28;20097;-85
2023/09/05 02:06:22;;;;;;;7.13;5.82;;;;;;;;;;4978155;28;20100;-86
2023/09/05 02:08:50;;;;;;;6.03;5.45;;;;;;;;;;4994997;28;20554;-85
2023/09/05 02:11:18;;;;;;;5.80;5.05;;;;;;;;;;4978029;28;20138;-85
2023/09/05 02:13:45;;;;;;;5.25;4.85;;;;;;;;;;4977883;28;20081;-85
2023/09/05 02:16:18;;;;;;;5.15;4.75;;;;;;;;;;4977921;28;20061;-85
2023/09/05 02:18:47;;;;;;;4.93;4.53;;;;;;;;;;4994937;28;20074;-85
2023/09/05 02:21:14;;;;;;;6.82;5.25;;;;;;;;;;4977723;28;20495;-85
2023/09/05 02:23:42;;;;;;;6.07;5.43;;;;;;;;;;4977498;28;20116;-86
2023/09/05 02:26:09;;;;;;;5.50;5.00;;;;;;;;;;4977757;28;20128;-86
2023/09/05 02:28:39;;;;;;;6.25;4.70;;;;;;;;;;4977745;28;20070;-85
2023/09/05 02:31:07;;;;;;;6.68;5.20;;;;;;;;;;4977467;28;20046;-86
2023/09/05 02:33:36;;;;;;;7.35;5.07;;;;;;;;;;4977557;28;20046;-86
2023/09/05 02:36:08;;;;;;;10.43;5.13;;;;;;;;;;4977157;28;20129;-84
2023/09/05 02:38:37;;;;;;;6.63;5.13;;;;;;;;;;4977322;28;20133;-85
2023/09/05 02:41:04;;;;;;;5.25;4.65;;;;;;;;;;4977095;28;20050;-85
2023/09/05 02:43:33;;;;;;;5.80;5.30;;;;;;;;;;4977164;28;20058;-86
2023/09/05 02:46:00;;;;;;;8.68;5.15;;;;;;;;;;4977205;28;20047;-85
2023/09/05 02:48:27;;;;;;;8.75;5.45;;;;;;;;;;4977266;28;20462;-85
2023/09/05 02:51:04;;;;;;;7.72;5.13;;;;;;;;;;4994355;28;20100;-85
2023/09/05 02:53:32;;;;;;;5.50;5.00;;;;;;;;;;4994392;28;20050;-85
2023/09/05 02:55:59;;;;;;;8.23;5.55;;;;;;;;;;4976387;28;20109;-85
2023/09/05 02:58:28;;;;;;;5.40;4.90;;;;;;;;;;4994417;28;20050;-85
2023/09/05 03:00:59;;;;;;;5.05;4.65;;;;;;;;;;4976956;28;20051;-85
2023/09/05 03:03:27;;;;;;;6.40;4.53;;;;;;;;;;4976868;28;20050;-86
2023/09/05 03:05:54;;;;;;;7.75;4.93;;;;;;;;;;4977018;28;20121;-85
2023/09/05 03:08:22;;;;;;;7.82;4.88;;;;;;;;;;4994879;28;20455;-86
2023/09/05 03:10:51;;;;;;;6.55;5.68;;;;;;;;;;4977651;28;20474;-86
2023/09/05 03:13:19;;;;;;;8.35;5.47;;;;;;;;;;4982076;28;20050;-86
2023/09/05 03:15:50;;;;;;;5.70;5.10;;;;;;;;;;5001990;28;20494;-85
2023/09/05 03:18:17;;;;;;;7.95;5.68;;;;;;;;;;4977761;28;20085;-86
2023/09/05 03:20:45;;;;;;;5.40;4.68;;;;;;;;;;4976933;28;20411;-85
2023/09/05 03:23:13;;;;;;;6.53;4.28;;;;;;;;;;4994205;28;20049;-86
2023/09/05 03:25:41;;;;;;;7.57;5.00;;;;;;;;;;4993811;28;20057;-85
2023/09/05 03:28:15;;;;;;;6.90;4.55;;;;;;;;;;4976558;28;20490;-85
2023/09/05 03:30:42;;;;;;;10.60;5.88;;;;;;;;;;4976442;28;20085;-85
2023/09/05 03:33:09;;;;;;;6.38;5.50;;;;;;;;;;4976539;28;20503;-86
2023/09/05 03:35:37;;;;;;;8.23;5.43;;;;;;;;;;4993545;28;20047;-85
2023/09/05 03:38:07;;;;;;;5.88;4.68;;;;;;;;;;4993760;28;20054;-85
2023/09/05 03:40:35;;;;;;;7.00;5.53;;;;;;;;;;4976389;28;20081;-85
2023/09/05 03:43:02;;;;;;;6.60;5.05;;;;;;;;;;4976619;28;20054;-86
2023/09/05 03:45:30;;;;;;;8.13;5.32;;;;;;;;;;4993632;28;20483;-86
2023/09/05 03:47:59;;;;;;;7.07;5.60;;;;;;;;;;4976630;28;20515;-86
2023/09/05 03:50:29;;;;;;;6.10;5.50;;;;;;;;;;4977223;28;20137;-86
2023/09/05 03:52:56;;;;;;;7.80;5.45;;;;;;;;;;4976465;28;20392;-86
2023/09/05 03:55:24;;;;;;;6.32;5.35;;;;;;;;;;4976215;28;20061;-86
2023/09/05 03:57:51;;;;;;;7.47;5.15;;;;;;;;;;4993368;28;20074;-86
2023/09/05 04:00:18;;;;;;;5.80;5.03;;;;;;;;;;4976600;28;20050;-86
2023/09/05 04:02:45;;;;;;;11.18;5.63;;;;;;;;;;4993567;28;20467;-86
2023/09/05 04:05:16;;;;;;;29.17;5.82;;;;;;;;;;4976954;28;20053;-85
2023/09/05 04:07:44;;;;;;;14.65;5.53;;;;;;;;;;4994446;28;20432;-86
2023/09/05 04:10:11;;;;;;;14.75;5.07;;;;;;;;;;4997563;28;20065;-86
2023/09/05 04:12:40;;;;;;;14.80;5.97;;;;;;;;;;4997680;28;20133;-85
2023/09/05 04:15:08;;;;;;;7.82;4.78;;;;;;;;;;4980507;28;20050;-86
2023/09/05 04:17:36;;;;;;;11.93;5.60;;;;;;;;;;4979936;28;20054;-86
2023/09/05 04:20:07;;;;;;;10.55;5.63;;;;;;;;;;4979966;28;20058;-85
2023/09/05 04:22:34;;;;;;;18.20;5.85;;;;;;;;;;4997205;28;20104;-86
2023/09/05 04:25:02;;;;;;;7.00;5.65;;;;;;;;;;4980000;28;20046;-86
2023/09/05 04:27:29;;;;;;;11.50;5.10;;;;;;;;;;4997384;28;20414;-86
2023/09/05 04:29:56;;;;;;;7.80;5.40;;;;;;;;;;4980109;28;20051;-86
2023/09/05 04:32:32;;;;;;;11.18;6.32;;;;;;;;;;4979977;28;20537;-86
2023/09/05 04:35:00;;;;;;;6.20;5.22;;;;;;;;;;4996931;28;20081;-86
2023/09/05 04:37:28;;;;;;;6.72;5.18;;;;;;;;;;4979951;28;20046;-86
2023/09/05 04:39:56;;;;;;;7.05;5.47;;;;;;;;;;4979856;28;20042;-86
2023/09/05 04:42:25;;;;;;;5.40;4.90;;;;;;;;;;4979809;28;20096;-86
2023/09/05 04:44:52;;;;;;;7.22;5.60;;;;;;;;;;4979580;28;20506;-86
2023/09/05 04:47:20;;;;;;;9.02;5.80;;;;;;;;;;4979623;28;20047;-86
2023/09/05 04:49:49;;;;;;;4.55;4.25;;;;;;;;;;4979851;28;20133;-86
2023/09/05 04:52:17;;;;;;;5.38;4.85;;;;;;;;;;4997084;28;20046;-86
2023/09/05 04:54:45;;;;;;;6.65;5.20;;;;;;;;;;4979644;28;20062;-86
2023/09/05 04:57:13;;;;;;;5.93;5.30;;;;;;;;;;4996680;28;20070;-86
2023/09/05 04:59:43;;;;;;;7.60;5.60;;;;;;;;;;4980001;28;20487;-87
2023/09/05 05:02:10;;;;;;;5.78;4.85;;;;;;;;;;4996741;28;20065;-87
2023/09/05 05:04:38;;;;;;;6.85;5.65;;;;;;;;;;4996935;28;20086;-86
2023/09/05 05:07:05;;;;;;;7.05;5.35;;;;;;;;;;4996465;28;20101;-86
2023/09/05 05:09:34;;;;;;;6.63;5.25;;;;;;;;;;4997027;28;20047;-87
2023/09/05 05:12:01;;;;;;;6.45;4.85;;;;;;;;;;4979818;28;20132;-87
2023/09/05 05:14:29;;;;;;;5.53;4.80;;;;;;;;;;4979470;28;20061;-86
2023/09/05 05:16:56;;;;;;;6.57;4.90;;;;;;;;;;4979388;28;20050;-85
2023/09/05 05:19:24;;;;;;;7.85;4.45;;;;;;;;;;4978722;28;20133;-86
2023/09/05 05:21:52;;;;;;;5.40;4.95;;;;;;;;;;4996430;28;20046;-86
2023/09/05 05:24:19;;;;;;;6.20;5.22;;;;;;;;;;4979243;28;20128;-87
2023/09/05 05:26:46;;;;;;;10.93;5.18;;;;;;;;;;4979116;28;20046;-87
2023/09/05 05:29:13;;;;;;;6.45;4.55;;;;;;;;;;4979170;28;20078;-87
2023/09/05 05:31:41;;;;;;;6.00;5.05;;;;;;;;;;4978295;28;20081;-87
2023/09/05 05:34:08;;;;;;;8.35;5.80;;;;;;;;;;4996038;28;20487;-87
2023/09/05 05:36:38;;;;;;;6.35;4.93;;;;;;;;;;4979284;28;20047;-87
2023/09/05 05:39:05;;;;;;;9.60;4.60;;;;;;;;;;4995992;28;20062;-85
2023/09/05 05:41:34;;;;;;;6.05;4.38;;;;;;;;;;4978856;28;20070;-86
2023/09/05 05:44:01;;;;;;;7.32;4.53;;;;;;;;;;4995180;28;20502;-86
2023/09/05 05:46:30;;;;;;;8.52;4.60;;;;;;;;;;4978770;28;20483;-86
2023/09/05 05:48:58;;;;;;;5.18;3.60;;;;;;;;;;4977587;28;20054;-86
2023/09/05 05:51:28;;;;;;;4.80;3.65;;;;;;;;;;4978825;28;20080;-85
2023/09/05 05:53:55;;;;;;;3.75;3.25;;;;;;;;;;4978468;28;20137;-85
2023/09/05 05:56:22;;;;;;;5.40;2.35;;;;;;;;;;4995708;28;20082;-86
2023/09/05 05:58:49;;;;;;;5.55;2.50;;;;;;;;;;4999815;28;20047;-86
2023/09/05 06:01:20;;;;;;;3.35;2.00;;;;;;;;;;5004232;28;20050;-84
2023/09/05 06:03:47;;;;;;;10.18;2.28;;;;;;;;;;4979549;28;20050;-85
2023/09/05 06:06:15;;;;;;;9.13;1.75;;;;;;;;;;4995424;28;20053;-85
2023/09/05 06:08:42;;;;;;;7.07;2.60;;;;;;;;;;4978190;28;20553;-85
2023/09/05 06:11:09;;;;;;;1.67;1.58;;;;;;;;;;4977921;28;20050;-85
2023/09/05 06:13:37;;;;;;;3.28;1.70;;;;;;;;;;4977888;28;20124;-85
2023/09/05 06:16:04;;;;;;;4.40;2.28;;;;;;;;;;4977782;28;20077;-86
2023/09/05 06:18:31;;;;;;;4.07;1.63;;;;;;;;;;4995118;28;20046;-85
2023/09/05 06:20:59;;;;;;;2.13;1.92;;;;;;;;;;4994224;28;20046;-85
2023/09/05 06:23:26;;;;;;;1.73;1.63;;;;;;;;;;4977842;28;20452;-85
2023/09/05 06:25:53;;;;;;;2.60;1.60;;;;;;;;;;4994697;28;20054;-85
2023/09/05 06:28:20;;;;;;;4.20;1.60;;;;;;;;;;4995081;28;20054;-85
2023/09/05 06:30:48;;;;;;;7.30;1.83;;;;;;;;;;4977130;28;20061;-85
2023/09/05 06:33:15;;;;;;;3.65;1.65;;;;;;;;;;4977498;28;20050;-85
2023/09/05 06:35:43;;;;;;;2.80;1.63;;;;;;;;;;4994653;28;20050;-85
2023/09/05 06:38:10;;;;;;;2.60;1.50;;;;;;;;;;4977667;28;20415;-85
2023/09/05 06:40:38;;;;;;;5.63;2.03;;;;;;;;;;4977246;28;20491;-85
2023/09/05 06:43:06;;;;;;;3.67;1.60;;;;;;;;;;4977169;28;20054;-86
2023/09/05 06:45:34;;;;;;;3.25;1.88;;;;;;;;;;4976861;28;20096;-86
2023/09/05 06:48:03;;;;;;;3.00;1.63;;;;;;;;;;4976309;28;20069;-85
2023/09/05 06:50:30;;;;;;;2.00;1.70;;;;;;;;;;4994520;28;20062;-86
2023/09/05 06:52:57;;;;;;;1.85;1.50;;;;;;;;;;4994104;28;20616;-85
2023/09/05 06:55:28;;;;;;;3.15;1.73;;;;;;;;;;4994425;28;20109;-85
2023/09/05 06:57:55;;;;;;;1.90;1.65;;;;;;;;;;4994211;28;20051;-86
2023/09/05 07:00:25;;;;;;;2.90;1.80;;;;;;;;;;4977010;28;20074;-86
2023/09/05 07:02:52;;;;;;;1.60;1.48;;;;;;;;;;4994491;28;20101;-86
2023/09/05 07:05:20;;;;;;;2.70;1.60;;;;;;;;;;4993835;28;20058;-86
2023/09/05 07:07:47;;;;;;;4.78;1.70;;;;;;;;;;4976810;28;20050;-85
2023/09/05 07:10:14;;;;;;;2.03;1.63;;;;;;;;;;4976951;28;20113;-86
2023/09/05 07:12:41;;;;;;;2.15;1.30;;;;;;;;;;4976683;28;20046;-85
2023/09/05 07:15:09;;;;;;;1.67;1.58;;;;;;;;;;4976998;28;20550;-85
2023/09/05 07:17:36;;;;;;;4.80;1.60;;;;;;;;;;4976818;28;20057;-86
2023/09/05 07:20:03;;;;;;;1.92;1.73;;;;;;;;;;4977098;28;20054;-87
2023/09/05 07:22:33;;;;;;;3.72;1.55;;;;;;;;;;4993847;28;20052;-85
2023/09/05 07:25:01;;;;;;;2.10;1.67;;;;;;;;;;4976601;28;20117;-85
2023/09/05 07:27:28;;;;;;;4.57;1.83;;;;;;;;;;4976089;28;20042;-86
2023/09/05 07:29:55;;;;;;;3.30;1.75;;;;;;;;;;4975621;28;20062;-86
2023/09/05 07:32:23;;;;;;;1.58;1.45;;;;;;;;;;4974567;28;20109;-86
2023/09/05 07:34:50;;;;;;;1.40;1.30;;;;;;;;;;4974813;28;20406;-87
2023/09/05 07:37:18;;;;;;;8.85;1.58;;;;;;;;;;4975131;28;20042;-86
2023/09/05 07:39:49;;;;;;;8.38;1.98;;;;;;;;;;4974696;28;20050;-86
2023/09/05 07:42:17;;;;;;;5.32;1.73;;;;;;;;;;4974127;28;20062;-86
2023/09/05 07:44:44;;;;;;;5.72;1.67;;;;;;;;;;4992285;28;20058;-86
2023/09/05 07:47:11;;;;;;;6.90;2.22;;;;;;;;;;4993721;28;20082;-85
2023/09/05 07:49:41;;;;;;;9.82;1.80;;;;;;;;;;4976555;28;20050;-89
2023/09/05 07:52:08;;;;;;;9.75;1.83;;;;;;;;;;4976720;28;20061;-87
2023/09/05 07:54:36;;;;;;;11.60;2.35;;;;;;;;;;4993680;28;20050;-86
2023/09/05 07:57:04;;;;;;;13.98;2.08;;;;;;;;;;4976532;28;20163;-88
2023/09/05 07:59:32;;;;;;;4.63;1.85;;;;;;;;;;4976619;28;20057;-88
2023/09/05 08:02:00;;;;;;;5.43;1.58;;;;;;;;;;4993242;28;20082;-88
2023/09/05 08:04:29;;;;;;;8.20;2.20;;;;;;;;;;4976334;28;20418;-87
2023/09/05 08:06:56;;;;;;;2.67;1.70;;;;;;;;;;4976282;28;20047;-87
2023/09/05 08:09:23;;;;;;;1.30;1.30;;;;;;;;;;4976650;28;20073;-87
2023/09/05 08:11:51;;;;;;;1.20;1.10;;;;;;;;;;4976659;28;20054;-88
2023/09/05 08:14:18;;;;;;;2.75;1.50;;;;;;;;;;4993697;28;20097;-88
2023/09/05 08:16:46;;;;;;;3.08;1.70;;;;;;;;;;4993512;28;20415;-88
2023/09/05 08:19:13;;;;;;;5.10;1.90;;;;;;;;;;4993812;28;20133;-89
2023/09/05 08:21:40;;;;;;;6.22;3.13;;;;;;;;;;4993601;28;20054;-88
2023/09/05 08:24:09;;;;;;;2.35;1.60;;;;;;;;;;4993445;28;20090;-88
2023/09/05 08:26:37;;;;;;;3.83;1.20;;;;;;;;;;4976552;28;20046;-89
2023/09/05 08:29:05;;;;;;;6.88;1.40;;;;;;;;;;4993633;28;20054;-89
2023/09/05 08:31:33;;;;;;;4.63;1.60;;;;;;;;;;4993620;28;20051;-88
2023/09/05 08:34:00;;;;;;;1.40;1.30;;;;;;;;;;4976455;28;20050;-91
2023/09/05 08:36:27;;;;;;;5.95;1.42;;;;;;;;;;4976599;28;20110;-89
2023/09/05 08:38:55;;;;;;;1.83;1.38;;;;;;;;;;4976598;28;20141;-88
2023/09/05 08:41:22;;;;;;;4.82;1.38;;;;;;;;;;4976573;28;20050;-87
2023/09/05 08:43:49;;;;;;;1.40;0.90;;;;;;;;;;4977802;28;20085;-87
2023/09/05 08:46:17;;;;;;;2.00;1.40;;;;;;;;;;4997398;28;20090;-87
2023/09/05 08:48:45;;;;;;;2.08;0.85;;;;;;;;;;4997688;28;20058;-88
2023/09/05 08:51:22;;;;;;;1.00;1.00;;;;;;;;;;4978654;28;20060;-89
2023/09/05 08:53:56;;;;;;;1.20;1.00;;;;;;;;;;4993650;28;20053;-90
2023/09/05 08:56:25;;;;;;;3.38;1.10;;;;;;;;;;4979831;28;20047;-89
2023/09/05 08:58:53;;;;;;;1.38;0.85;;;;;;;;;;4979974;28;20077;-89
2023/09/05 09:01:20;;;;;;;1.00;1.00;;;;;;;;;;4979625;28;20442;-89
2023/09/05 09:03:49;;;;;;;1.35;0.80;;;;;;;;;;4996901;28;20495;-89
2023/09/05 09:06:17;;;;;;;1.85;1.05;;;;;;;;;;4979652;28;20046;-90
2023/09/05 09:08:44;;;;;;;1.88;1.15;;;;;;;;;;4997064;28;20077;-92
2023/09/05 09:11:12;;;;;;;3.58;1.15;;;;;;;;;;4979697;28;20050;-89
2023/09/05 09:13:39;;;;;;;6.20;1.50;;;;;;;;;;4979785;28;20050;-91
2023/09/05 09:16:07;;;;;;;0.80;0.80;;;;;;;;;;4979424;28;20054;-90
2023/09/05 09:18:34;;;;;;;0.98;0.90;;;;;;;;;;4996658;28;20053;-89
2023/09/05 09:21:05;;;;;;;1.73;0.60;;;;;;;;;;4996597;28;20458;-89
2023/09/05 09:23:35;;;;;;;1.50;0.80;;;;;;;;;;4979604;28;20058;-89
2023/09/05 09:26:03;;;;;;;5.30;1.10;;;;;;;;;;4979028;28;20057;-88
2023/09/05 09:28:34;;;;;;;1.05;0.70;;;;;;;;;;4979611;28;20054;-88
2023/09/05 09:31:03;;;;;;;0.57;0.57;;;;;;;;;;4979315;28;20399;-87
2023/09/05 09:33:31;;;;;;;1.58;0.80;;;;;;;;;;4996412;28;20132;-86
2023/09/05 09:36:05;;;;;;;0.60;0.60;;;;;;;;;;4979303;28;20081;-90
2023/09/05 09:38:33;;;;;;;2.42;0.95;;;;;;;;;;4978931;28;20042;-88
2023/09/05 09:41:02;;;;;;;1.25;0.60;;;;;;;;;;4996042;28;20085;-88
2023/09/05 09:43:29;;;;;;;0.63;0.60;;;;;;;;;;4979005;28;20108;-86
2023/09/05 09:46:01;;;;;;;1.67;0.60;;;;;;;;;;4979204;28;20050;-88
2023/09/05 09:48:29;;;;;;;0.65;0.40;;;;;;;;;;4996096;28;20050;-87
2023/09/05 09:50:57;;;;;;;1.55;0.50;;;;;;;;;;4995963;28;20117;-86
2023/09/05 09:53:45;;;;;;;1.13;0.60;;;;;;;;;;4995991;28;20058;-90
2023/09/05 09:56:13;;;;;;;0.68;0.60;;;;;;;;;;4978470;28;20050;-89
2023/09/05 09:58:41;;;;;;;0.80;0.50;;;;;;;;;;4979096;28;20050;-89
2023/09/05 10:01:12;;;;;;;0.85;0.50;;;;;;;;;;4978783;28;20047;-89
2023/09/05 10:03:40;;;;;;;0.60;0.60;;;;;;;;;;4978896;28;20054;-89
2023/09/05 10:06:08;;;;;;;0.70;0.50;;;;;;;;;;4978313;28;20050;-86
2023/09/05 10:08:36;;;;;;;1.67;0.40;;;;;;;;;;4995691;28;20062;-89
2023/09/05 10:11:11;;;;;;;1.30;0.60;;;;;;;;;;4995950;28;20051;-88
2023/09/05 10:13:40;;;;;;;0.60;0.60;;;;;;;;;;4995538;28;20043;-89
2023/09/05 10:16:09;;;;;;;1.10;0.52;;;;;;;;;;4995640;28;20077;-88
2023/09/05 10:18:38;;;;;;;0.90;0.70;;;;;;;;;;4978463;28;20054;-88
2023/09/05 10:21:06;;;;;;;0.60;0.60;;;;;;;;;;4995421;28;20050;-89
2023/09/05 10:23:34;;;;;;;0.80;0.75;;;;;;;;;;4978443;28;20108;-88
2023/09/05 10:26:05;;;;;;;0.60;0.60;;;;;;;;;;4978015;28;20507;-88
2023/09/05 10:28:33;;;;;;;2.58;0.60;;;;;;;;;;4978119;28;20116;-88
2023/09/05 10:31:13;;;;;;;2.15;0.70;;;;;;;;;;4978376;28;20509;-89
2023/09/05 10:33:45;;;;;;;2.25;0.70;;;;;;;;;;4995326;28;20130;-89
2023/09/05 10:36:32;;;;;;;3.25;1.08;;;;;;;;;;4978518;28;20137;-94
2023/09/05 10:39:00;;;;;;;1.25;0.60;;;;;;;;;;4995214;28;20105;-90
2023/09/05 10:41:37;;;;;;;0.47;0.43;;;;;;;;;;4977922;28;20054;-85
2023/09/05 10:44:06;;;;;;;3.33;0.70;;;;;;;;;;4978047;28;20062;-86
2023/09/05 10:46:34;;;;;;;0.40;0.40;;;;;;;;;;4978192;28;20081;-89
2023/09/05 10:49:14;;;;;;;5.25;1.02;;;;;;;;;;4978013;28;20054;-88
2023/09/05 10:52:00;;;;;;;1.35;0.50;;;;;;;;;;4978233;28;20057;-91
2023/09/05 10:54:30;;;;;;;0.70;0.70;;;;;;;;;;4978209;28;20046;-88
2023/09/05 10:56:57;;;;;;;0.65;0.60;;;;;;;;;;4995533;28;20089;-91
2023/09/05 10:59:30;;;;;;;1.05;0.60;;;;;;;;;;4977740;28;20077;-89
2023/09/05 11:02:02;;;;;;;0.60;0.60;;;;;;;;;;4994932;28;20529;-89
2023/09/05 11:04:31;;;;;;;2.75;1.20;;;;;;;;;;4978023;28;20153;-90
2023/09/05 11:07:01;;;;;;;1.70;0.75;;;;;;;;;;4977428;28;20050;-88
2023/09/05 11:09:29;;;;;;;1.73;1.00;;;;;;;;;;4977918;28;20109;-89
2023/09/05 11:11:57;;;;;;;6.10;1.20;;;;;;;;;;4978384;28;20060;-91
2023/09/05 11:14:31;;;;;;;2.45;0.80;;;;;;;;;;4977754;28;20113;-87
2023/09/05 11:16:58;;;;;;;6.82;2.10;;;;;;;;;;4977806;28;20046;-92
2023/09/05 11:19:32;;;;;;;0.93;0.75;;;;;;;;;;4978242;28;20050;-91
2023/09/05 11:21:59;;;;;;;;;;;;;;;;;;4994867;28;20050;-90
2023/09/05 11:24:30;;;;;;;10.45;2.35;;;;;;;;;;4994611;28;20016;-91
2023/09/05 11:26:57;;;;;;;0.80;0.80;;;;;;;;;;4983608;28;20462;-91
2023/09/05 11:29:28;;;;;;;2.22;1.00;;;;;;;;;;4981122;28;20051;-87
2023/09/05 11:31:59;;;;;;;0.90;0.90;;;;;;;;;;5001352;28;20466;-92
2023/09/05 11:34:27;;;;;;;2.63;0.77;;;;;;;;;;4980639;28;20125;-89
2023/09/05 11:36:54;;;;;;;2.97;0.80;;;;;;;;;;4994737;28;20506;-89
2023/09/05 11:39:29;;;;;;;2.47;0.73;;;;;;;;;;4994666;28;20081;-92
2023/09/05 11:41:58;;;;;;;1.05;0.63;;;;;;;;;;4977646;28;20143;-90
2023/09/05 11:44:39;;;;;;;1.55;1.13;;;;;;;;;;4977516;28;20054;-90
2023/09/05 11:47:07;;;;;;;4.90;1.65;;;;;;;;;;4977678;28;20057;-89
2023/09/05 11:49:34;;;;;;;3.00;0.90;;;;;;;;;;4977077;28;20054;-90
2023/09/05 11:52:03;;;;;;;14.43;1.73;;;;;;;;;;4994405;28;20561;-88
2023/09/05 11:54:33;;;;;;;5.90;1.05;;;;;;;;;;4977399;28;20082;-89
2023/09/05 11:57:02;;;;;;;4.30;1.00;;;;;;;;;;4993839;28;20583;-89
2023/09/05 11:59:30;;;;;;;0.60;0.60;;;;;;;;;;4994599;28;20047;-90
2023/09/05 12:01:57;;;;;;;0.60;0.60;;;;;;;;;;4978038;28;20054;-89
2023/09/05 12:04:24;;;;;;;0.52;0.52;;;;;;;;;;4978101;28;20121;-90
2023/09/05 12:06:52;;;;;;;0.90;0.60;;;;;;;;;;4976765;28;20055;-90
2023/09/05 12:09:20;;;;;;;6.55;1.25;;;;;;;;;;4976963;28;20499;-90
2023/09/05 12:11:48;;;;;;;3.58;0.95;;;;;;;;;;4977067;28;20520;-90
2023/09/05 12:14:20;;;;;;;7.03;1.10;;;;;;;;;;4994146;28;20046;-93
2023/09/05 12:16:47;;;;;;;8.63;1.17;;;;;;;;;;4976612;28;20149;-89
2023/09/05 12:19:16;;;;;;;1.45;0.90;;;;;;;;;;4976684;28;20089;-90
2023/09/05 12:21:45;;;;;;;4.72;1.83;;;;;;;;;;4993747;28;20047;-89
2023/09/05 12:24:20;;;;;;;1.45;0.68;;;;;;;;;;4977573;28;20051;-91
2023/09/05 12:26:49;;;;;;;1.05;0.63;;;;;;;;;;4993714;28;20514;-90
2023/09/05 12:29:21;;;;;;;1.38;0.60;;;;;;;;;;4978523;28;20105;-92
2023/09/05 12:31:53;;;;;;;0.90;0.60;;;;;;;;;;4980184;28;20055;-90
2023/09/05 12:34:21;;;;;;;1.33;0.57;;;;;;;;;;4980461;28;20069;-89
2023/09/05 12:36:50;;;;;;;14.00;2.10;;;;;;;;;;4980606;28;20050;-91
2023/09/05 12:39:17;;;;;;;3.88;1.00;;;;;;;;;;4980388;28;20118;-92
2023/09/05 12:41:46;;;;;;;2.28;0.70;;;;;;;;;;4980740;28;20462;-89
2023/09/05 12:44:13;;;;;;;1.05;0.75;;;;;;;;;;4982294;28;20108;-94
2023/09/05 12:46:42;;;;;;;0.75;0.73;;;;;;;;;;4980583;28;20462;-90
2023/09/05 12:49:10;;;;;;;3.40;0.98;;;;;;;;;;4978729;28;20046;-89
2023/09/05 12:51:37;;;;;;;0.63;0.63;;;;;;;;;;4980128;28;20396;-91
2023/09/05 12:54:04;;;;;;;1.27;0.60;;;;;;;;;;4979885;28;20053;-90
2023/09/05 12:56:33;;;;;;;0.60;0.60;;;;;;;;;;4979799;28;20130;-90
2023/09/05 12:59:01;;;;;;;3.13;0.60;;;;;;;;;;4979644;28;20047;-92
2023/09/05 13:01:29;;;;;;;0.52;0.52;;;;;;;;;;4980263;28;20077;-90
2023/09/05 13:03:56;;;;;;;2.45;0.70;;;;;;;;;;4979966;28;20058;-91
2023/09/05 13:06:24;;;;;;;1.40;0.82;;;;;;;;;;4980372;28;20423;-91
2023/09/05 13:08:51;;;;;;;1.17;0.60;;;;;;;;;;4979740;28;20120;-91
2023/09/05 13:11:18;;;;;;;2.55;0.90;;;;;;;;;;4996890;28;20061;-88
2023/09/05 13:13:45;;;;;;;0.85;0.80;;;;;;;;;;4979941;28;20074;-88
2023/09/05 13:16:14;;;;;;;0.60;0.60;;;;;;;;;;4979772;28;20074;-90
2023/09/05 13:18:41;;;;;;;4.80;1.17;;;;;;;;;;4980745;28;20081;-92
2023/09/05 13:21:09;;;;;;;1.17;1.08;;;;;;;;;;4979989;28;20406;-90
2023/09/05 13:23:37;;;;;;;5.20;1.35;;;;;;;;;;4979641;28;20491;-90
2023/09/05 13:26:04;;;;;;;3.00;1.35;;;;;;;;;;4996305;28;20046;-89
2023/09/05 13:28:35;;;;;;;0.85;0.65;;;;;;;;;;4980015;28;20305;-89
2023/09/05 13:31:02;;;;;;;1.92;0.88;;;;;;;;;;4996523;28;20050;-90
2023/09/05 13:33:29;;;;;;;0.88;0.70;;;;;;;;;;4996692;28;20054;-89
2023/09/05 13:35:57;;;;;;;19.67;2.75;;;;;;;;;;4996128;28;20054;-90
2023/09/05 13:38:25;;;;;;;4.47;1.20;;;;;;;;;;4979149;28;20050;-92
2023/09/05 13:40:52;;;;;;;6.85;2.00;;;;;;;;;;4980693;28;20144;-92
2023/09/05 13:43:19;;;;;;;2.67;0.90;;;;;;;;;;4978833;28;20454;-89
2023/09/05 13:45:47;;;;;;;4.63;1.40;;;;;;;;;;4995984;28;20388;-92
2023/09/05 13:48:14;;;;;;;3.00;1.60;;;;;;;;;;4996037;28;20078;-90
2023/09/05 13:50:42;;;;;;;1.15;0.80;;;;;;;;;;4979853;28;20054;-90
2023/09/05 13:53:09;;;;;;;1.73;1.02;;;;;;;;;;4978740;28;20046;-89
2023/09/05 13:55:36;;;;;;;0.70;0.70;;;;;;;;;;4979234;28;20499;-88
2023/09/05 13:58:03;;;;;;;1.58;0.68;;;;;;;;;;4995848;28;20553;-88
2023/09/05 14:00:31;;;;;;;3.55;0.85;;;;;;;;;;4979349;28;20070;-89
2023/09/05 14:02:58;;;;;;;1.70;0.90;;;;;;;;;;4978764;28;20105;-92
2023/09/05 14:05:26;;;;;;;1.98;0.95;;;;;;;;;;4995558;28;20058;-91
2023/09/05 14:07:53;;;;;;;2.13;0.95;;;;;;;;;;4978866;28;20110;-90
2023/09/05 14:10:21;;;;;;;0.88;0.80;;;;;;;;;;5000077;28;20182;-88
2023/09/05 14:12:48;;;;;;;1.00;0.90;;;;;;;;;;4984720;28;20064;-88
2023/09/05 14:18:46;;;;;;;1.50;0.90;;;;;;;;;;4995481;28;20497;-89
2023/09/05 14:21:14;;;;;;;0.90;0.90;;;;;;;;;;4995164;28;20051;-88
2023/09/05 14:23:41;;;;;;;1.17;0.90;;;;;;;;;;4995352;28;20050;-89
2023/09/05 14:26:09;;;;;;;1.10;1.00;;;;;;;;;;4977908;28;20061;-91
2023/09/05 14:28:36;;;;;;;3.40;0.90;;;;;;;;;;4978242;28;20054;-86
2023/09/05 14:31:04;;;;;;;2.55;0.90;;;;;;;;;;4978284;28;20046;-88
2023/09/05 14:33:32;;;;;;;2.10;1.00;;;;;;;;;;4994939;28;20093;-90
2023/09/05 14:35:59;;;;;;;1.02;0.70;;;;;;;;;;4977945;28;20058;-89
2023/09/05 14:38:26;;;;;;;0.90;0.90;;;;;;;;;;4995192;28;20514;-86
2023/09/05 14:40:58;;;;;;;1.50;1.10;;;;;;;;;;4978110;28;20054;-86
2023/09/05 14:43:26;;;;;;;1.65;1.20;;;;;;;;;;4977486;28;20066;-88
2023/09/05 14:45:54;;;;;;;1.10;1.00;;;;;;;;;;4977616;28;20134;-88
2023/09/05 14:48:21;;;;;;;3.42;1.52;;;;;;;;;;4977765;28;20054;-89
2023/09/05 14:50:49;;;;;;;3.50;1.17;;;;;;;;;;4994543;28;20070;-87
2023/09/05 14:53:16;;;;;;;1.50;1.23;;;;;;;;;;4994722;28;20074;-89
2023/09/05 14:55:44;;;;;;;2.08;1.20;;;;;;;;;;4994580;28;20096;-87